sensor_id;sensor_type;location;lat;lon;timestamp;temperature;humidity
65239;SHT30;51827;51.186;6.926;2024-02-14T00:00:52;19.09;52.32
65239;SHT30;51827;51.186;6.926;2024-02-14T00:01:52;19.12;52.29
65239;SHT30;51827;51.186;6.926;2024-02-14T00:02:52;19.10;52.33
65239;SHT30;51827;51.186;6.926;2024-02-14T00:03:53;19.10;52.29
65239;SHT30;51827;51.186;6.926;2024-02-14T00:04:53;19.10;52.32
65239;SHT30;51827;51.186;6.926;2024-02-14T00:05:54;19.09;52.33
65239;SHT30;51827;51.186;6.926;2024-02-14T00:06:54;19.10;52.31
65239;SHT30;51827;51.186;6.926;2024-02-14T00:07:54;19.09;52.33
65239;SHT30;51827;51.186;6.926;2024-02-14T00:08:54;19.08;52.34
65239;SHT30;51827;51.186;6.926;2024-02-14T00:09:55;19.10;52.32
65239;SHT30;51827;51.186;6.926;2024-02-14T00:10:55;19.08;52.37
65239;SHT30;51827;51.186;6.926;2024-02-14T00:11:55;19.09;52.33
65239;SHT30;51827;51.186;6.926;2024-02-14T00:12:55;19.10;52.33
65239;SHT30;51827;51.186;6.926;2024-02-14T00:13:56;19.09;52.36
65239;SHT30;51827;51.186;6.926;2024-02-14T00:14:56;19.09;52.33
65239;SHT30;51827;51.186;6.926;2024-02-14T00:15:56;19.12;52.35
65239;SHT30;51827;51.186;6.926;2024-02-14T00:16:56;19.09;52.33
65239;SHT30;51827;51.186;6.926;2024-02-14T00:17:57;19.09;52.30
65239;SHT30;51827;51.186;6.926;2024-02-14T00:18:57;19.10;52.31
65239;SHT30;51827;51.186;6.926;2024-02-14T00:19:57;19.10;52.33
65239;SHT30;51827;51.186;6.926;2024-02-14T00:20:57;19.12;52.31
65239;SHT30;51827;51.186;6.926;2024-02-14T00:21:58;19.09;52.31
65239;SHT30;51827;51.186;6.926;2024-02-14T00:22:58;19.08;52.35
65239;SHT30;51827;51.186;6.926;2024-02-14T00:23:58;19.09;52.36
65239;SHT30;51827;51.186;6.926;2024-02-14T00:24:58;19.10;52.39
65239;SHT30;51827;51.186;6.926;2024-02-14T00:25:59;19.12;52.33
65239;SHT30;51827;51.186;6.926;2024-02-14T00:26:59;19.08;52.33
65239;SHT30;51827;51.186;6.926;2024-02-14T00:27:59;19.10;52.32
65239;SHT30;51827;51.186;6.926;2024-02-14T00:28:59;19.10;52.34
65239;SHT30;51827;51.186;6.926;2024-02-14T00:30:00;19.09;52.39
65239;SHT30;51827;51.186;6.926;2024-02-14T00:31:00;19.09;52.32
65239;SHT30;51827;51.186;6.926;2024-02-14T00:32:00;19.09;52.35
65239;SHT30;51827;51.186;6.926;2024-02-14T00:33:01;19.10;52.32
65239;SHT30;51827;51.186;6.926;2024-02-14T00:34:01;19.09;52.34
65239;SHT30;51827;51.186;6.926;2024-02-14T00:35:01;19.08;52.37
65239;SHT30;51827;51.186;6.926;2024-02-14T00:36:01;19.12;52.35
65239;SHT30;51827;51.186;6.926;2024-02-14T00:37:02;19.09;52.36
65239;SHT30;51827;51.186;6.926;2024-02-14T00:38:02;19.08;52.34
65239;SHT30;51827;51.186;6.926;2024-02-14T00:39:02;19.09;52.38
65239;SHT30;51827;51.186;6.926;2024-02-14T00:40:03;19.09;52.34
65239;SHT30;51827;51.186;6.926;2024-02-14T00:41:03;19.10;52.37
65239;SHT30;51827;51.186;6.926;2024-02-14T00:42:04;19.10;52.37
65239;SHT30;51827;51.186;6.926;2024-02-14T00:43:04;19.09;52.39
65239;SHT30;51827;51.186;6.926;2024-02-14T00:44:04;19.09;52.35
65239;SHT30;51827;51.186;6.926;2024-02-14T00:45:06;19.10;52.34
65239;SHT30;51827;51.186;6.926;2024-02-14T00:46:06;19.10;52.39
65239;SHT30;51827;51.186;6.926;2024-02-14T00:47:07;19.10;52.35
65239;SHT30;51827;51.186;6.926;2024-02-14T00:48:07;19.10;52.36
65239;SHT30;51827;51.186;6.926;2024-02-14T00:49:07;19.10;52.38
65239;SHT30;51827;51.186;6.926;2024-02-14T00:50:08;19.10;52.37
65239;SHT30;51827;51.186;6.926;2024-02-14T00:51:09;19.12;52.33
65239;SHT30;51827;51.186;6.926;2024-02-14T00:52:09;19.10;52.37
65239;SHT30;51827;51.186;6.926;2024-02-14T00:53:09;19.10;52.34
65239;SHT30;51827;51.186;6.926;2024-02-14T00:54:09;19.12;52.35
65239;SHT30;51827;51.186;6.926;2024-02-14T00:55:10;19.10;52.38
65239;SHT30;51827;51.186;6.926;2024-02-14T00:56:10;19.09;52.34
65239;SHT30;51827;51.186;6.926;2024-02-14T00:57:10;19.13;52.33
65239;SHT30;51827;51.186;6.926;2024-02-14T00:58:10;19.10;52.37
65239;SHT30;51827;51.186;6.926;2024-02-14T00:59:11;19.10;52.34
65239;SHT30;51827;51.186;6.926;2024-02-14T01:00:11;19.10;52.35
65239;SHT30;51827;51.186;6.926;2024-02-14T01:01:11;19.09;52.38
65239;SHT30;51827;51.186;6.926;2024-02-14T01:02:12;19.10;52.37
65239;SHT30;51827;51.186;6.926;2024-02-14T01:03:12;19.10;52.39
65239;SHT30;51827;51.186;6.926;2024-02-14T01:04:12;19.09;52.40
65239;SHT30;51827;51.186;6.926;2024-02-14T01:05:12;19.10;52.43
65239;SHT30;51827;51.186;6.926;2024-02-14T01:06:13;19.09;52.41
65239;SHT30;51827;51.186;6.926;2024-02-14T01:07:13;19.10;52.43
65239;SHT30;51827;51.186;6.926;2024-02-14T01:08:13;19.12;52.42
65239;SHT30;51827;51.186;6.926;2024-02-14T01:09:13;19.10;52.40
65239;SHT30;51827;51.186;6.926;2024-02-14T01:10:14;19.10;52.40
65239;SHT30;51827;51.186;6.926;2024-02-14T01:11:14;19.10;52.42
65239;SHT30;51827;51.186;6.926;2024-02-14T01:12:14;19.12;52.40
65239;SHT30;51827;51.186;6.926;2024-02-14T01:13:15;19.09;52.43
65239;SHT30;51827;51.186;6.926;2024-02-14T01:14:15;19.10;52.42
65239;SHT30;51827;51.186;6.926;2024-02-14T01:15:15;19.12;52.42
65239;SHT30;51827;51.186;6.926;2024-02-14T01:16:15;19.09;52.42
65239;SHT30;51827;51.186;6.926;2024-02-14T01:17:16;19.10;52.47
65239;SHT30;51827;51.186;6.926;2024-02-14T01:18:16;19.10;52.43
65239;SHT30;51827;51.186;6.926;2024-02-14T01:19:16;19.09;52.44
65239;SHT30;51827;51.186;6.926;2024-02-14T01:20:17;19.13;52.42
65239;SHT30;51827;51.186;6.926;2024-02-14T01:21:17;19.12;52.45
65239;SHT30;51827;51.186;6.926;2024-02-14T01:22:17;19.13;52.42
65239;SHT30;51827;51.186;6.926;2024-02-14T01:23:17;19.10;52.45
65239;SHT30;51827;51.186;6.926;2024-02-14T01:24:18;19.13;52.46
65239;SHT30;51827;51.186;6.926;2024-02-14T01:25:18;19.12;52.45
65239;SHT30;51827;51.186;6.926;2024-02-14T01:26:18;19.09;52.43
65239;SHT30;51827;51.186;6.926;2024-02-14T01:27:18;19.09;52.50
65239;SHT30;51827;51.186;6.926;2024-02-14T01:28:18;19.12;52.46
65239;SHT30;51827;51.186;6.926;2024-02-14T01:29:19;19.08;52.43
65239;SHT30;51827;51.186;6.926;2024-02-14T01:30:19;19.10;52.47
65239;SHT30;51827;51.186;6.926;2024-02-14T01:31:19;19.12;52.49
65239;SHT30;51827;51.186;6.926;2024-02-14T01:32:19;19.12;52.43
65239;SHT30;51827;51.186;6.926;2024-02-14T01:33:20;19.12;52.46
65239;SHT30;51827;51.186;6.926;2024-02-14T01:34:20;19.10;52.52
65239;SHT30;51827;51.186;6.926;2024-02-14T01:35:20;19.12;52.47
65239;SHT30;51827;51.186;6.926;2024-02-14T01:36:21;19.10;52.54
65239;SHT30;51827;51.186;6.926;2024-02-14T01:37:21;19.12;52.49
65239;SHT30;51827;51.186;6.926;2024-02-14T01:38:21;19.10;52.49
65239;SHT30;51827;51.186;6.926;2024-02-14T01:39:21;19.10;52.49
65239;SHT30;51827;51.186;6.926;2024-02-14T01:40:23;19.10;52.54
65239;SHT30;51827;51.186;6.926;2024-02-14T01:41:23;19.12;52.52
65239;SHT30;51827;51.186;6.926;2024-02-14T01:42:24;19.12;52.50
65239;SHT30;51827;51.186;6.926;2024-02-14T01:43:24;19.12;52.53
65239;SHT30;51827;51.186;6.926;2024-02-14T01:44:24;19.08;52.52
65239;SHT30;51827;51.186;6.926;2024-02-14T01:45:24;19.12;52.50
65239;SHT30;51827;51.186;6.926;2024-02-14T01:46:25;19.13;52.53
65239;SHT30;51827;51.186;6.926;2024-02-14T01:47:25;19.10;52.54
65239;SHT30;51827;51.186;6.926;2024-02-14T01:48:25;19.10;52.57
65239;SHT30;51827;51.186;6.926;2024-02-14T01:49:25;19.12;52.50
65239;SHT30;51827;51.186;6.926;2024-02-14T01:50:26;19.13;52.53
65239;SHT30;51827;51.186;6.926;2024-02-14T01:51:26;19.10;52.52
65239;SHT30;51827;51.186;6.926;2024-02-14T01:52:27;19.12;52.52
65239;SHT30;51827;51.186;6.926;2024-02-14T01:53:28;19.12;52.52
65239;SHT30;51827;51.186;6.926;2024-02-14T01:54:29;19.12;52.55
65239;SHT30;51827;51.186;6.926;2024-02-14T01:55:30;19.12;52.51
65239;SHT30;51827;51.186;6.926;2024-02-14T01:56:30;19.12;52.54
65239;SHT30;51827;51.186;6.926;2024-02-14T01:57:31;19.10;52.57
65239;SHT30;51827;51.186;6.926;2024-02-14T01:58:33;19.10;52.55
65239;SHT30;51827;51.186;6.926;2024-02-14T01:59:34;19.10;52.58
65239;SHT30;51827;51.186;6.926;2024-02-14T02:00:35;19.10;52.53
65239;SHT30;51827;51.186;6.926;2024-02-14T02:01:36;19.12;52.58
65239;SHT30;51827;51.186;6.926;2024-02-14T02:02:36;19.10;52.57
65239;SHT30;51827;51.186;6.926;2024-02-14T02:03:36;19.10;52.59
65239;SHT30;51827;51.186;6.926;2024-02-14T02:04:36;19.12;52.59
65239;SHT30;51827;51.186;6.926;2024-02-14T02:05:36;19.12;52.60
65239;SHT30;51827;51.186;6.926;2024-02-14T02:06:37;19.06;52.61
65239;SHT30;51827;51.186;6.926;2024-02-14T02:07:37;19.12;52.58
65239;SHT30;51827;51.186;6.926;2024-02-14T02:08:37;19.12;52.59
65239;SHT30;51827;51.186;6.926;2024-02-14T02:09:38;19.09;52.60
65239;SHT30;51827;51.186;6.926;2024-02-14T02:10:38;19.09;52.61
65239;SHT30;51827;51.186;6.926;2024-02-14T02:11:52;19.12;52.60
65239;SHT30;51827;51.186;6.926;2024-02-14T02:13:00;19.10;52.60
65239;SHT30;51827;51.186;6.926;2024-02-14T02:14:00;19.12;52.62
65239;SHT30;51827;51.186;6.926;2024-02-14T02:15:00;19.10;52.63
65239;SHT30;51827;51.186;6.926;2024-02-14T02:16:01;19.09;52.65
65239;SHT30;51827;51.186;6.926;2024-02-14T02:17:01;19.12;52.63
65239;SHT30;51827;51.186;6.926;2024-02-14T02:18:03;19.12;52.68
65239;SHT30;51827;51.186;6.926;2024-02-14T02:19:04;19.10;52.60
65239;SHT30;51827;51.186;6.926;2024-02-14T02:20:04;19.12;52.67
65239;SHT30;51827;51.186;6.926;2024-02-14T02:21:06;19.12;52.62
65239;SHT30;51827;51.186;6.926;2024-02-14T02:22:06;19.10;52.65
65239;SHT30;51827;51.186;6.926;2024-02-14T02:23:06;19.10;52.59
65239;SHT30;51827;51.186;6.926;2024-02-14T02:24:06;19.12;52.67
65239;SHT30;51827;51.186;6.926;2024-02-14T02:25:07;19.13;52.63
65239;SHT30;51827;51.186;6.926;2024-02-14T02:26:07;19.12;52.68
65239;SHT30;51827;51.186;6.926;2024-02-14T02:27:07;19.12;52.65
65239;SHT30;51827;51.186;6.926;2024-02-14T02:28:08;19.10;52.68
65239;SHT30;51827;51.186;6.926;2024-02-14T02:29:08;19.10;52.64
65239;SHT30;51827;51.186;6.926;2024-02-14T02:30:08;19.10;52.64
65239;SHT30;51827;51.186;6.926;2024-02-14T02:31:09;19.10;52.71
65239;SHT30;51827;51.186;6.926;2024-02-14T02:32:09;19.12;52.67
65239;SHT30;51827;51.186;6.926;2024-02-14T02:33:09;19.10;52.67
65239;SHT30;51827;51.186;6.926;2024-02-14T02:34:09;19.10;52.69
65239;SHT30;51827;51.186;6.926;2024-02-14T02:35:09;19.10;52.68
65239;SHT30;51827;51.186;6.926;2024-02-14T02:36:10;19.12;52.67
65239;SHT30;51827;51.186;6.926;2024-02-14T02:37:13;19.15;52.70
65239;SHT30;51827;51.186;6.926;2024-02-14T02:38:13;19.15;52.70
65239;SHT30;51827;51.186;6.926;2024-02-14T02:39:13;19.10;52.69
65239;SHT30;51827;51.186;6.926;2024-02-14T02:40:14;19.12;52.70
65239;SHT30;51827;51.186;6.926;2024-02-14T02:41:15;19.13;52.67
65239;SHT30;51827;51.186;6.926;2024-02-14T02:42:15;19.13;52.68
65239;SHT30;51827;51.186;6.926;2024-02-14T02:43:15;19.13;52.69
65239;SHT30;51827;51.186;6.926;2024-02-14T02:44:16;19.13;52.68
65239;SHT30;51827;51.186;6.926;2024-02-14T02:45:16;19.12;52.71
65239;SHT30;51827;51.186;6.926;2024-02-14T02:46:17;19.10;52.69
65239;SHT30;51827;51.186;6.926;2024-02-14T02:47:17;19.12;52.72
65239;SHT30;51827;51.186;6.926;2024-02-14T02:48:17;19.13;52.72
65239;SHT30;51827;51.186;6.926;2024-02-14T02:49:17;19.12;52.75
65239;SHT30;51827;51.186;6.926;2024-02-14T02:50:18;19.12;52.72
65239;SHT30;51827;51.186;6.926;2024-02-14T02:51:18;19.09;52.72
65239;SHT30;51827;51.186;6.926;2024-02-14T02:52:19;19.12;52.71
65239;SHT30;51827;51.186;6.926;2024-02-14T02:53:19;19.12;52.74
65239;SHT30;51827;51.186;6.926;2024-02-14T02:54:19;19.10;52.75
65239;SHT30;51827;51.186;6.926;2024-02-14T02:55:20;19.12;52.74
65239;SHT30;51827;51.186;6.926;2024-02-14T02:56:20;19.13;52.74
65239;SHT30;51827;51.186;6.926;2024-02-14T02:57:20;19.13;52.74
65239;SHT30;51827;51.186;6.926;2024-02-14T02:58:21;19.13;52.72
65239;SHT30;51827;51.186;6.926;2024-02-14T02:59:21;19.13;52.77
65239;SHT30;51827;51.186;6.926;2024-02-14T03:00:21;19.12;52.69
65239;SHT30;51827;51.186;6.926;2024-02-14T03:01:21;19.13;52.74
65239;SHT30;51827;51.186;6.926;2024-02-14T03:02:22;19.12;52.76
65239;SHT30;51827;51.186;6.926;2024-02-14T03:03:22;19.15;52.75
65239;SHT30;51827;51.186;6.926;2024-02-14T03:04:22;19.12;52.75
65239;SHT30;51827;51.186;6.926;2024-02-14T03:05:22;19.13;52.77
65239;SHT30;51827;51.186;6.926;2024-02-14T03:06:23;19.10;52.77
65239;SHT30;51827;51.186;6.926;2024-02-14T03:07:23;19.12;52.78
65239;SHT30;51827;51.186;6.926;2024-02-14T03:08:23;19.10;52.79
65239;SHT30;51827;51.186;6.926;2024-02-14T03:09:23;19.12;52.78
65239;SHT30;51827;51.186;6.926;2024-02-14T03:10:24;19.13;52.78
65239;SHT30;51827;51.186;6.926;2024-02-14T03:11:24;19.12;52.75
65239;SHT30;51827;51.186;6.926;2024-02-14T03:12:24;19.10;52.79
65239;SHT30;51827;51.186;6.926;2024-02-14T03:13:25;19.12;52.79
65239;SHT30;51827;51.186;6.926;2024-02-14T03:14:30;19.15;52.79
65239;SHT30;51827;51.186;6.926;2024-02-14T03:15:31;19.10;52.77
65239;SHT30;51827;51.186;6.926;2024-02-14T03:16:31;19.13;52.75
65239;SHT30;51827;51.186;6.926;2024-02-14T03:17:31;19.13;52.78
65239;SHT30;51827;51.186;6.926;2024-02-14T03:18:32;19.10;52.78
65239;SHT30;51827;51.186;6.926;2024-02-14T03:19:32;19.12;52.77
65239;SHT30;51827;51.186;6.926;2024-02-14T03:20:32;19.12;52.79
65239;SHT30;51827;51.186;6.926;2024-02-14T03:21:32;19.12;52.81
65239;SHT30;51827;51.186;6.926;2024-02-14T03:22:33;19.12;52.81
65239;SHT30;51827;51.186;6.926;2024-02-14T03:23:33;19.10;52.80
65239;SHT30;51827;51.186;6.926;2024-02-14T03:24:33;19.12;52.82
65239;SHT30;51827;51.186;6.926;2024-02-14T03:25:33;19.15;52.81
65239;SHT30;51827;51.186;6.926;2024-02-14T03:26:34;19.12;52.83
65239;SHT30;51827;51.186;6.926;2024-02-14T03:27:34;19.13;52.83
65239;SHT30;51827;51.186;6.926;2024-02-14T03:28:34;19.12;52.82
65239;SHT30;51827;51.186;6.926;2024-02-14T03:29:34;19.12;52.77
65239;SHT30;51827;51.186;6.926;2024-02-14T03:30:35;19.13;52.82
65239;SHT30;51827;51.186;6.926;2024-02-14T03:31:35;19.13;52.81
65239;SHT30;51827;51.186;6.926;2024-02-14T03:32:36;19.12;52.80
65239;SHT30;51827;51.186;6.926;2024-02-14T03:33:36;19.12;52.85
65239;SHT30;51827;51.186;6.926;2024-02-14T03:34:36;19.13;52.79
65239;SHT30;51827;51.186;6.926;2024-02-14T03:35:36;19.13;52.82
65239;SHT30;51827;51.186;6.926;2024-02-14T03:36:37;19.13;52.82
65239;SHT30;51827;51.186;6.926;2024-02-14T03:37:38;19.15;52.86
65239;SHT30;51827;51.186;6.926;2024-02-14T03:38:38;19.15;52.86
65239;SHT30;51827;51.186;6.926;2024-02-14T03:39:38;19.13;52.88
65239;SHT30;51827;51.186;6.926;2024-02-14T03:40:38;19.13;52.90
65239;SHT30;51827;51.186;6.926;2024-02-14T03:41:38;19.10;52.88
65239;SHT30;51827;51.186;6.926;2024-02-14T03:42:39;19.13;52.94
65239;SHT30;51827;51.186;6.926;2024-02-14T03:43:39;19.12;52.90
65239;SHT30;51827;51.186;6.926;2024-02-14T03:44:39;19.13;52.89
65239;SHT30;51827;51.186;6.926;2024-02-14T03:45:39;19.12;52.87
65239;SHT30;51827;51.186;6.926;2024-02-14T03:46:40;19.12;52.89
65239;SHT30;51827;51.186;6.926;2024-02-14T03:47:40;19.13;52.89
65239;SHT30;51827;51.186;6.926;2024-02-14T03:48:43;19.12;52.90
65239;SHT30;51827;51.186;6.926;2024-02-14T03:49:43;19.15;52.90
65239;SHT30;51827;51.186;6.926;2024-02-14T03:50:44;19.15;52.90
65239;SHT30;51827;51.186;6.926;2024-02-14T03:51:44;19.12;52.89
65239;SHT30;51827;51.186;6.926;2024-02-14T03:52:44;19.12;52.88
65239;SHT30;51827;51.186;6.926;2024-02-14T03:53:44;19.13;52.90
65239;SHT30;51827;51.186;6.926;2024-02-14T03:54:45;19.12;52.89
65239;SHT30;51827;51.186;6.926;2024-02-14T03:55:45;19.12;52.85
65239;SHT30;51827;51.186;6.926;2024-02-14T03:56:45;19.13;52.88
65239;SHT30;51827;51.186;6.926;2024-02-14T03:57:45;19.13;52.88
65239;SHT30;51827;51.186;6.926;2024-02-14T03:58:45;19.13;52.91
65239;SHT30;51827;51.186;6.926;2024-02-14T03:59:46;19.13;52.85
65239;SHT30;51827;51.186;6.926;2024-02-14T04:00:46;19.16;52.92
65239;SHT30;51827;51.186;6.926;2024-02-14T04:01:47;19.10;52.91
65239;SHT30;51827;51.186;6.926;2024-02-14T04:02:47;19.13;52.93
65239;SHT30;51827;51.186;6.926;2024-02-14T04:03:47;19.13;52.92
65239;SHT30;51827;51.186;6.926;2024-02-14T04:04:48;19.10;52.92
65239;SHT30;51827;51.186;6.926;2024-02-14T04:05:48;19.12;52.97
65239;SHT30;51827;51.186;6.926;2024-02-14T04:06:48;19.12;52.90
65239;SHT30;51827;51.186;6.926;2024-02-14T04:07:48;19.13;52.90
65239;SHT30;51827;51.186;6.926;2024-02-14T04:08:49;19.12;52.89
65239;SHT30;51827;51.186;6.926;2024-02-14T04:09:49;19.15;52.88
65239;SHT30;51827;51.186;6.926;2024-02-14T04:10:49;19.16;52.92
65239;SHT30;51827;51.186;6.926;2024-02-14T04:11:50;19.13;52.89
65239;SHT30;51827;51.186;6.926;2024-02-14T04:12:50;19.13;52.87
65239;SHT30;51827;51.186;6.926;2024-02-14T04:13:50;19.13;52.88
65239;SHT30;51827;51.186;6.926;2024-02-14T04:14:50;19.12;52.88
65239;SHT30;51827;51.186;6.926;2024-02-14T04:15:51;19.13;52.90
65239;SHT30;51827;51.186;6.926;2024-02-14T04:16:51;19.12;52.87
65239;SHT30;51827;51.186;6.926;2024-02-14T04:17:51;19.13;52.87
65239;SHT30;51827;51.186;6.926;2024-02-14T04:18:51;19.15;52.89
65239;SHT30;51827;51.186;6.926;2024-02-14T04:19:52;19.13;52.88
65239;SHT30;51827;51.186;6.926;2024-02-14T04:20:52;19.13;52.90
65239;SHT30;51827;51.186;6.926;2024-02-14T04:21:52;19.10;52.93
65239;SHT30;51827;51.186;6.926;2024-02-14T04:22:52;19.13;52.89
65239;SHT30;51827;51.186;6.926;2024-02-14T04:23:53;19.13;52.82
65239;SHT30;51827;51.186;6.926;2024-02-14T04:24:53;19.15;52.86
65239;SHT30;51827;51.186;6.926;2024-02-14T04:25:53;19.13;52.88
65239;SHT30;51827;51.186;6.926;2024-02-14T04:26:53;19.15;52.89
65239;SHT30;51827;51.186;6.926;2024-02-14T04:27:54;19.15;52.86
65239;SHT30;51827;51.186;6.926;2024-02-14T04:28:54;19.13;52.87
65239;SHT30;51827;51.186;6.926;2024-02-14T04:29:54;19.16;52.89
65239;SHT30;51827;51.186;6.926;2024-02-14T04:30:54;19.16;52.85
65239;SHT30;51827;51.186;6.926;2024-02-14T04:31:55;19.13;52.87
65239;SHT30;51827;51.186;6.926;2024-02-14T04:32:55;19.16;52.85
65239;SHT30;51827;51.186;6.926;2024-02-14T04:33:55;19.16;52.98
65239;SHT30;51827;51.186;6.926;2024-02-14T04:34:56;19.13;53.14
65239;SHT30;51827;51.186;6.926;2024-02-14T04:35:56;19.15;53.21
65239;SHT30;51827;51.186;6.926;2024-02-14T04:36:56;19.15;53.19
65239;SHT30;51827;51.186;6.926;2024-02-14T04:37:56;19.15;53.10
65239;SHT30;51827;51.186;6.926;2024-02-14T04:38:57;19.16;53.10
65239;SHT30;51827;51.186;6.926;2024-02-14T04:39:57;19.18;53.05
65239;SHT30;51827;51.186;6.926;2024-02-14T04:40:57;19.18;53.10
65239;SHT30;51827;51.186;6.926;2024-02-14T04:41:57;19.15;53.02
65239;SHT30;51827;51.186;6.926;2024-02-14T04:42:58;19.16;53.01
65239;SHT30;51827;51.186;6.926;2024-02-14T04:43:58;19.16;52.95
65239;SHT30;51827;51.186;6.926;2024-02-14T04:44:58;19.18;52.99
65239;SHT30;51827;51.186;6.926;2024-02-14T04:45:58;19.20;53.02
65239;SHT30;51827;51.186;6.926;2024-02-14T04:46:59;19.16;53.00
65239;SHT30;51827;51.186;6.926;2024-02-14T04:47:59;19.16;52.98
65239;SHT30;51827;51.186;6.926;2024-02-14T04:48:59;19.18;53.02
65239;SHT30;51827;51.186;6.926;2024-02-14T04:49:59;19.15;52.97
65239;SHT30;51827;51.186;6.926;2024-02-14T04:51:00;19.16;53.01
65239;SHT30;51827;51.186;6.926;2024-02-14T04:52:00;19.15;53.02
65239;SHT30;51827;51.186;6.926;2024-02-14T04:53:00;19.15;53.03
65239;SHT30;51827;51.186;6.926;2024-02-14T04:54:01;19.15;53.05
65239;SHT30;51827;51.186;6.926;2024-02-14T04:55:01;19.13;53.01
65239;SHT30;51827;51.186;6.926;2024-02-14T04:56:01;19.16;52.99
65239;SHT30;51827;51.186;6.926;2024-02-14T04:57:01;19.16;53.00
65239;SHT30;51827;51.186;6.926;2024-02-14T04:58:02;19.16;52.96
65239;SHT30;51827;51.186;6.926;2024-02-14T04:59:02;19.15;53.03
65239;SHT30;51827;51.186;6.926;2024-02-14T05:00:04;19.15;52.98
65239;SHT30;51827;51.186;6.926;2024-02-14T05:01:04;19.16;52.98
65239;SHT30;51827;51.186;6.926;2024-02-14T05:02:05;19.16;53.01
65239;SHT30;51827;51.186;6.926;2024-02-14T05:03:05;19.16;52.98
65239;SHT30;51827;51.186;6.926;2024-02-14T05:04:06;19.16;52.96
65239;SHT30;51827;51.186;6.926;2024-02-14T05:05:06;19.16;52.97
65239;SHT30;51827;51.186;6.926;2024-02-14T05:06:06;19.15;52.96
65239;SHT30;51827;51.186;6.926;2024-02-14T05:07:07;19.19;52.93
65239;SHT30;51827;51.186;6.926;2024-02-14T05:08:07;19.19;53.01
65239;SHT30;51827;51.186;6.926;2024-02-14T05:09:07;19.16;52.95
65239;SHT30;51827;51.186;6.926;2024-02-14T05:10:07;19.18;52.96
65239;SHT30;51827;51.186;6.926;2024-02-14T05:11:08;19.15;52.99
65239;SHT30;51827;51.186;6.926;2024-02-14T05:12:08;19.18;52.96
65239;SHT30;51827;51.186;6.926;2024-02-14T05:13:08;19.19;52.96
65239;SHT30;51827;51.186;6.926;2024-02-14T05:14:08;19.19;52.97
65239;SHT30;51827;51.186;6.926;2024-02-14T05:15:09;19.18;52.96
65239;SHT30;51827;51.186;6.926;2024-02-14T05:16:09;19.16;52.98
65239;SHT30;51827;51.186;6.926;2024-02-14T05:17:09;19.16;52.95
65239;SHT30;51827;51.186;6.926;2024-02-14T05:18:10;19.16;52.96
65239;SHT30;51827;51.186;6.926;2024-02-14T05:19:10;19.20;52.95
65239;SHT30;51827;51.186;6.926;2024-02-14T05:20:10;19.16;52.99
65239;SHT30;51827;51.186;6.926;2024-02-14T05:21:11;19.15;52.94
65239;SHT30;51827;51.186;6.926;2024-02-14T05:22:11;19.15;52.93
65239;SHT30;51827;51.186;6.926;2024-02-14T05:23:11;19.16;52.94
65239;SHT30;51827;51.186;6.926;2024-02-14T05:24:11;19.16;52.93
65239;SHT30;51827;51.186;6.926;2024-02-14T05:25:12;19.19;52.93
65239;SHT30;51827;51.186;6.926;2024-02-14T05:26:12;19.16;52.99
65239;SHT30;51827;51.186;6.926;2024-02-14T05:27:12;19.19;52.96
65239;SHT30;51827;51.186;6.926;2024-02-14T05:28:12;19.16;53.03
65239;SHT30;51827;51.186;6.926;2024-02-14T05:29:13;19.18;52.97
65239;SHT30;51827;51.186;6.926;2024-02-14T05:30:13;19.16;52.96
65239;SHT30;51827;51.186;6.926;2024-02-14T05:31:13;19.19;52.99
65239;SHT30;51827;51.186;6.926;2024-02-14T05:32:13;19.18;52.98
65239;SHT30;51827;51.186;6.926;2024-02-14T05:33:14;19.19;52.99
65239;SHT30;51827;51.186;6.926;2024-02-14T05:34:14;19.16;53.02
65239;SHT30;51827;51.186;6.926;2024-02-14T05:35:14;19.15;53.03
65239;SHT30;51827;51.186;6.926;2024-02-14T05:36:14;19.18;53.00
65239;SHT30;51827;51.186;6.926;2024-02-14T05:37:15;19.18;52.98
65239;SHT30;51827;51.186;6.926;2024-02-14T05:38:16;19.19;52.97
65239;SHT30;51827;51.186;6.926;2024-02-14T05:39:16;19.18;52.97
65239;SHT30;51827;51.186;6.926;2024-02-14T05:40:17;19.15;52.98
65239;SHT30;51827;51.186;6.926;2024-02-14T05:41:17;19.16;52.98
65239;SHT30;51827;51.186;6.926;2024-02-14T05:42:17;19.18;52.99
65239;SHT30;51827;51.186;6.926;2024-02-14T05:43:17;19.18;52.93
65239;SHT30;51827;51.186;6.926;2024-02-14T05:44:18;19.19;52.95
65239;SHT30;51827;51.186;6.926;2024-02-14T05:45:18;19.19;52.94
65239;SHT30;51827;51.186;6.926;2024-02-14T05:46:18;19.18;52.94
65239;SHT30;51827;51.186;6.926;2024-02-14T05:47:18;19.18;52.99
65239;SHT30;51827;51.186;6.926;2024-02-14T05:48:19;19.18;52.96
65239;SHT30;51827;51.186;6.926;2024-02-14T05:49:21;19.18;52.92
65239;SHT30;51827;51.186;6.926;2024-02-14T05:50:21;19.18;52.96
65239;SHT30;51827;51.186;6.926;2024-02-14T05:51:21;19.19;52.94
65239;SHT30;51827;51.186;6.926;2024-02-14T05:52:22;19.16;52.94
65239;SHT30;51827;51.186;6.926;2024-02-14T05:53:22;19.19;52.92
65239;SHT30;51827;51.186;6.926;2024-02-14T05:54:22;19.18;52.92
65239;SHT30;51827;51.186;6.926;2024-02-14T05:55:22;19.18;52.93
65239;SHT30;51827;51.186;6.926;2024-02-14T05:56:23;19.18;52.86
65239;SHT30;51827;51.186;6.926;2024-02-14T05:57:23;19.19;52.92
65239;SHT30;51827;51.186;6.926;2024-02-14T05:58:23;19.15;52.97
65239;SHT30;51827;51.186;6.926;2024-02-14T05:59:23;19.18;52.92
65239;SHT30;51827;51.186;6.926;2024-02-14T06:00:24;19.18;52.87
65239;SHT30;51827;51.186;6.926;2024-02-14T06:01:24;19.19;52.91
65239;SHT30;51827;51.186;6.926;2024-02-14T06:02:24;19.18;52.87
65239;SHT30;51827;51.186;6.926;2024-02-14T06:03:24;19.16;52.89
65239;SHT30;51827;51.186;6.926;2024-02-14T06:04:25;19.15;52.94
65239;SHT30;51827;51.186;6.926;2024-02-14T06:05:25;19.18;52.93
65239;SHT30;51827;51.186;6.926;2024-02-14T06:06:25;19.18;52.95
65239;SHT30;51827;51.186;6.926;2024-02-14T06:07:25;19.16;52.93
65239;SHT30;51827;51.186;6.926;2024-02-14T06:08:26;19.16;52.92
65239;SHT30;51827;51.186;6.926;2024-02-14T06:09:26;19.16;52.90
65239;SHT30;51827;51.186;6.926;2024-02-14T06:10:26;19.18;52.91
65239;SHT30;51827;51.186;6.926;2024-02-14T06:11:26;19.16;52.93
65239;SHT30;51827;51.186;6.926;2024-02-14T06:12:27;19.16;52.88
65239;SHT30;51827;51.186;6.926;2024-02-14T06:13:27;19.16;52.87
65239;SHT30;51827;51.186;6.926;2024-02-14T06:14:27;19.19;52.87
65239;SHT30;51827;51.186;6.926;2024-02-14T06:15:27;19.18;52.89
65239;SHT30;51827;51.186;6.926;2024-02-14T06:16:28;19.18;52.87
65239;SHT30;51827;51.186;6.926;2024-02-14T06:17:28;19.18;52.91
65239;SHT30;51827;51.186;6.926;2024-02-14T06:18:28;19.19;52.86
65239;SHT30;51827;51.186;6.926;2024-02-14T06:19:29;19.18;52.86
65239;SHT30;51827;51.186;6.926;2024-02-14T06:20:29;19.16;52.91
65239;SHT30;51827;51.186;6.926;2024-02-14T06:21:30;19.18;52.86